Parkfield, California
Current Conditions -  °F | °C
As of 3:53 PM on Friday 28 Nov 2014 (Local Time) from KPRB Reporting Station
Clear Clear  
Wind Chill: 76°   Ceiling: Unl
Heat Index: 76°   Visibility: 10mi
Dew Point: 25°   Wind: 9mph
Humidity: 15%   Direction: 210°SSW
Pressure: 29.9"   Gusts: NA
Location:  35.7552°N, 120.63°W
Report Text: KPRB 282353Z AUTO 21008KT 10SM CLR 24/M04 A2990 RMK AO2 SLP121 T02441039 10256 20100 56018 TSNO
Loading
Personal Weather Stations






























Interactive Weather Map New forecast layout! Learn more

10-Day Weather Forecast

Advertisements
Track Severe Weather on mobile